Time;durP1;ratioP1;P1;durP2;ratioP2;P2;SDS_P1;SDS_P2;PMS_P1;PMS_P2;Temp;Humidity;BMP_temperature;BMP_pressure;BME280_temperature;BME280_humidity;BME280_pressure;Samples;Min_cycle;Max_cycle;Signal;HPM_P1;HPM_P2
2022/07/07 00:00:03;;;;;;;;;;;21.30;75.10;;;;;;6198174;23;19982;-96
2022/07/07 00:02:29;;;;;;;;;;;21.60;75.40;;;;;;6224461;23;19957;-96
2022/07/07 00:04:54;;;;;;;;;;;21.80;75.70;;;;;;6223986;23;19936;-96
2022/07/07 00:07:20;;;;;;;;;;;21.70;75.10;;;;;;6224560;23;19944;-96
2022/07/07 00:09:46;;;;;;;;;;;21.70;75.80;;;;;;6223616;23;19972;-96
2022/07/07 00:12:12;;;;;;;;;;;21.60;76.30;;;;;;6223600;23;19997;-96
2022/07/07 00:14:37;;;;;;;;;;;21.60;76.00;;;;;;6196939;23;19935;-96
2022/07/07 00:17:03;;;;;;;;;;;21.80;75.90;;;;;;6223482;23;19952;-96
2022/07/07 00:19:28;;;;;;;;;;;21.80;76.40;;;;;;6222318;23;19944;-96
2022/07/07 00:21:54;;;;;;;;;;;21.60;76.80;;;;;;6223459;23;20400;-96
2022/07/07 00:24:20;;;;;;;;;;;21.40;77.30;;;;;;6222834;23;19981;-96
2022/07/07 00:26:45;;;;;;;;;;;21.30;78.00;;;;;;6224003;23;19942;-96
2022/07/07 00:29:11;;;;;;;;;;;21.20;78.50;;;;;;6223704;23;20256;-96
2022/07/07 00:31:37;;;;;;;;;;;21.00;78.80;;;;;;6221745;23;19935;-96
2022/07/07 00:34:03;;;;;;;;;;;20.80;79.10;;;;;;6222601;23;19940;-96
2022/07/07 00:36:28;;;;;;;;;;;20.60;79.30;;;;;;6223219;23;19991;-96
2022/07/07 00:38:54;;;;;;;;;;;20.60;79.40;;;;;;6197542;23;19992;-96
2022/07/07 00:41:19;;;;;;;;;;;20.60;79.20;;;;;;6197188;23;20361;-96
2022/07/07 00:43:45;;;;;;;;;;;20.60;79.80;;;;;;6224785;23;19972;-96
2022/07/07 00:46:11;;;;;;;;;;;20.70;79.70;;;;;;6200247;23;19944;-96
2022/07/07 00:48:38;;;;;;;;;;;20.80;78.80;;;;;;6224123;23;19938;-96
2022/07/07 00:51:04;;;;;;;;;;;20.90;78.30;;;;;;6224080;23;19937;-96
2022/07/07 00:53:30;;;;;;;;;;;21.10;77.70;;;;;;6224816;23;19940;-96
2022/07/07 00:55:56;;;;;;;;;;;21.30;77.80;;;;;;6196895;23;19953;-96
2022/07/07 00:58:22;;;;;;;;;;;21.50;77.40;;;;;;6198032;23;20004;-96
2022/07/07 01:00:48;;;;;;;;;;;21.80;76.60;;;;;;6225108;23;19935;-96
2022/07/07 01:03:14;;;;;;;;;;;21.90;76.80;;;;;;6224962;23;19935;-96
2022/07/07 01:05:40;;;;;;;;;;;22.00;75.90;;;;;;6224808;23;19976;-96
2022/07/07 01:08:08;;;;;;;;;;;22.00;76.30;;;;;;6197142;23;19943;-96
2022/07/07 01:10:34;;;;;;;;;;;22.00;75.80;;;;;;6199386;23;19959;-96
2022/07/07 01:13:03;;;;;;;;;;;22.10;76.40;;;;;;6198344;23;19988;-96
2022/07/07 01:15:29;;;;;;;;;;;22.20;76.80;;;;;;6225322;23;20354;-96
2022/07/07 01:17:55;;;;;;;;;;;22.30;76.90;;;;;;6198412;23;19964;-96
2022/07/07 01:20:21;;;;;;;;;;;22.30;75.00;;;;;;6197715;23;19940;-96
2022/07/07 01:22:48;;;;;;;;;;;22.30;71.60;;;;;;6224392;23;20253;-96
2022/07/07 01:25:13;;;;;;;;;;;22.40;70.60;;;;;;6223950;23;19984;-96
2022/07/07 01:27:39;;;;;;;;;;;22.50;69.80;;;;;;6223858;23;20345;-96
2022/07/07 01:30:05;;;;;;;;;;;22.70;71.30;;;;;;6224208;23;19945;-96
2022/07/07 01:32:30;;;;;;;;;;;22.80;68.50;;;;;;6224493;23;19984;-96
2022/07/07 01:34:56;;;;;;;;;;;22.90;67.80;;;;;;6223112;23;19937;-96
2022/07/07 01:37:24;;;;;;;;;;;22.90;67.50;;;;;;6222412;23;19985;-96
2022/07/07 01:39:50;;;;;;;;;;;23.10;70.00;;;;;;6222935;23;19939;-96
2022/07/07 01:42:16;;;;;;;;;;;23.20;70.10;;;;;;6224149;23;19976;-96
2022/07/07 01:44:42;;;;;;;;;;;23.20;65.80;;;;;;6192946;23;19978;-96
2022/07/07 01:47:08;;;;;;;;;;;23.30;64.40;;;;;;6194926;23;19948;-96
2022/07/07 01:49:34;;;;;;;;;;;23.60;63.10;;;;;;6195186;23;19939;-97
2022/07/07 01:52:00;;;;;;;;;;;23.70;62.50;;;;;;6195086;23;19939;-96
2022/07/07 01:54:27;;;;;;;;;;;23.80;61.80;;;;;;6195825;23;19994;-96
2022/07/07 01:56:53;;;;;;;;;;;23.80;61.40;;;;;;6196571;23;20366;-96
2022/07/07 01:59:18;;;;;;;;;;;23.90;61.20;;;;;;6197699;23;19931;-96
2022/07/07 02:01:44;;;;;;;;;;;23.90;60.50;;;;;;6195115;23;19952;-96
2022/07/07 02:04:10;;;;;;;;;;;24.00;60.00;;;;;;6195490;23;19984;-96
2022/07/07 02:06:37;;;;;;;;;;;24.10;59.40;;;;;;6196095;23;19958;-96
2022/07/07 02:09:03;;;;;;;;;;;24.20;59.20;;;;;;6196890;23;19934;-96
2022/07/07 02:11:29;;;;;;;;;;;24.20;59.00;;;;;;6195885;23;19948;-96
2022/07/07 02:13:54;;;;;;;;;;;24.30;58.90;;;;;;6195464;23;19962;-96
2022/07/07 02:16:21;;;;;;;;;;;24.20;59.10;;;;;;6193963;23;20009;-96
2022/07/07 02:18:48;;;;;;;;;;;24.30;59.00;;;;;;6196491;23;19961;-96
2022/07/07 02:21:14;;;;;;;;;;;24.30;59.40;;;;;;6196060;23;19933;-96
2022/07/07 02:23:40;;;;;;;;;;;24.30;59.70;;;;;;6196225;23;20004;-96
2022/07/07 02:26:06;;;;;;;;;;;24.30;60.30;;;;;;6194767;23;19944;-96
2022/07/07 02:28:32;;;;;;;;;;;24.30;61.10;;;;;;6195880;23;19948;-96
2022/07/07 02:30:59;;;;;;;;;;;24.20;62.10;;;;;;6198471;23;19939;-96
2022/07/07 02:33:25;;;;;;;;;;;24.20;62.50;;;;;;6197072;23;19967;-96
2022/07/07 02:35:51;;;;;;;;;;;24.10;62.90;;;;;;6197702;23;19984;-96
2022/07/07 02:38:17;;;;;;;;;;;24.00;63.30;;;;;;6195939;23;20014;-96
2022/07/07 02:40:43;;;;;;;;;;;24.00;63.70;;;;;;6199231;23;19990;-96
2022/07/07 02:43:15;;;;;;;;;;;24.00;63.90;;;;;;6201718;23;19977;-96
2022/07/07 02:45:44;;;;;;;;;;;23.90;64.10;;;;;;6201229;23;19988;-96
2022/07/07 02:48:11;;;;;;;;;;;23.80;64.10;;;;;;6201203;23;19936;-97
2022/07/07 02:50:37;;;;;;;;;;;23.80;64.70;;;;;;6200565;23;19936;-96
2022/07/07 02:53:03;;;;;;;;;;;23.70;64.90;;;;;;6225242;23;19938;-96
2022/07/07 02:55:30;;;;;;;;;;;23.70;66.10;;;;;;6196785;23;20008;-96
2022/07/07 02:57:56;;;;;;;;;;;23.60;67.30;;;;;;6197735;23;19964;-96
2022/07/07 03:00:25;;;;;;;;;;;23.40;67.60;;;;;;6168888;23;20414;-96
2022/07/07 03:02:51;;;;;;;;;;;23.30;67.30;;;;;;6170027;23;19946;-96
2022/07/07 03:05:17;;;;;;;;;;;23.30;66.10;;;;;;6169056;23;19940;-96
2022/07/07 03:07:42;;;;;;;;;;;23.20;66.10;;;;;;6170660;23;19933;-96
2022/07/07 03:10:08;;;;;;;;;;;23.20;66.20;;;;;;6198926;23;20374;-96
2022/07/07 03:12:34;;;;;;;;;;;23.20;65.80;;;;;;6173046;23;19949;-96
2022/07/07 03:15:02;;;;;;;;;;;23.10;65.90;;;;;;6172531;23;20320;-96
2022/07/07 03:17:28;;;;;;;;;;;23.10;66.00;;;;;;6198080;23;20320;-96
2022/07/07 03:19:56;;;;;;;;;;;23.00;66.20;;;;;;6198090;23;19941;-96
2022/07/07 03:22:22;;;;;;;;;;;23.00;66.40;;;;;;6198296;23;19936;-96
2022/07/07 03:24:48;;;;;;;;;;;22.90;66.50;;;;;;6198784;23;19948;-96
2022/07/07 03:27:14;;;;;;;;;;;22.90;66.70;;;;;;6173640;23;19945;-96
2022/07/07 03:29:40;;;;;;;;;;;22.80;66.90;;;;;;6172575;23;19942;-96
2022/07/07 03:32:05;;;;;;;;;;;22.80;67.00;;;;;;6173904;23;19977;-96
2022/07/07 03:34:31;;;;;;;;;;;22.80;67.00;;;;;;6174192;23;19958;-96
2022/07/07 03:36:57;;;;;;;;;;;22.80;67.30;;;;;;6200184;23;19987;-96
2022/07/07 03:39:23;;;;;;;;;;;22.80;67.30;;;;;;6173917;23;19943;-96
2022/07/07 03:41:49;;;;;;;;;;;22.80;67.40;;;;;;6201284;23;19939;-96
2022/07/07 03:44:15;;;;;;;;;;;22.80;67.20;;;;;;6200450;23;19974;-96
2022/07/07 03:46:41;;;;;;;;;;;22.80;67.20;;;;;;6201216;23;19944;-96
2022/07/07 03:49:07;;;;;;;;;;;22.80;67.30;;;;;;6174466;23;20030;-96
2022/07/07 03:51:33;;;;;;;;;;;22.80;67.10;;;;;;6200377;23;19944;-96
2022/07/07 03:53:59;;;;;;;;;;;22.80;67.30;;;;;;6200199;23;19940;-96
2022/07/07 03:56:25;;;;;;;;;;;22.90;67.20;;;;;;6199591;23;19986;-96
2022/07/07 03:58:50;;;;;;;;;;;23.00;67.40;;;;;;6173241;23;19959;-96
2022/07/07 04:01:16;;;;;;;;;;;23.00;67.00;;;;;;6197632;23;19971;-96
2022/07/07 04:03:42;;;;;;;;;;;23.00;66.60;;;;;;6195275;23;20077;-96
2022/07/07 04:06:07;;;;;;;;;;;23.10;66.20;;;;;;6167641;23;19941;-96
2022/07/07 04:08:33;;;;;;;;;;;23.10;66.30;;;;;;6195563;23;19936;-96
2022/07/07 04:10:59;;;;;;;;;;;23.20;66.50;;;;;;6195309;23;19945;-97
2022/07/07 04:13:24;;;;;;;;;;;23.20;65.90;;;;;;6196017;23;20010;-96
2022/07/07 04:15:50;;;;;;;;;;;23.20;66.00;;;;;;6170837;23;19970;-96
2022/07/07 04:18:16;;;;;;;;;;;23.20;65.10;;;;;;6196021;23;19953;-96
2022/07/07 04:20:42;;;;;;;;;;;23.20;65.10;;;;;;6172217;23;19943;-96
2022/07/07 04:23:07;;;;;;;;;;;23.20;65.30;;;;;;6172145;23;19945;-96
2022/07/07 04:25:33;;;;;;;;;;;23.20;65.90;;;;;;6198019;23;19946;-96
2022/07/07 04:27:59;;;;;;;;;;;23.20;66.60;;;;;;6199046;23;19935;-96
2022/07/07 04:30:25;;;;;;;;;;;23.20;66.10;;;;;;6173547;23;19945;-96
2022/07/07 04:32:50;;;;;;;;;;;23.20;65.90;;;;;;6200075;23;19935;-96
2022/07/07 04:35:16;;;;;;;;;;;23.20;67.20;;;;;;6173134;23;19943;-96
2022/07/07 04:37:42;;;;;;;;;;;23.20;67.30;;;;;;6171387;23;20360;-96
2022/07/07 04:40:08;;;;;;;;;;;23.20;69.40;;;;;;6170490;23;19963;-96
2022/07/07 04:44:59;;;;;;;;;;;22.90;70.30;;;;;;6197111;23;20029;-96
2022/07/07 04:47:24;;;;;;;;;;;22.80;70.70;;;;;;6195917;23;20036;-96
2022/07/07 04:49:50;;;;;;;;;;;22.70;71.70;;;;;;6168274;23;19939;-96
2022/07/07 04:52:16;;;;;;;;;;;22.50;72.90;;;;;;6194675;23;19944;-96
2022/07/07 04:54:41;;;;;;;;;;;22.40;75.50;;;;;;6166971;23;19964;-96
2022/07/07 04:57:07;;;;;;;;;;;22.20;76.10;;;;;;6196511;23;20320;-96
2022/07/07 04:59:33;;;;;;;;;;;22.20;75.20;;;;;;6195313;23;19944;-96
2022/07/07 05:01:59;;;;;;;;;;;22.20;74.50;;;;;;6198492;23;19979;-96
2022/07/07 05:04:25;;;;;;;;;;;22.30;73.40;;;;;;6196076;23;19989;-96
2022/07/07 05:06:50;;;;;;;;;;;22.30;73.50;;;;;;6196250;23;19941;-96
2022/07/07 05:09:16;;;;;;;;;;;22.30;73.60;;;;;;6171934;23;19953;-96
2022/07/07 05:11:42;;;;;;;;;;;22.30;73.00;;;;;;6169276;23;20314;-96
2022/07/07 05:14:08;;;;;;;;;;;22.30;73.20;;;;;;6196711;23;19971;-96
2022/07/07 05:16:34;;;;;;;;;;;22.30;73.00;;;;;;6197519;23;19932;-96
2022/07/07 05:19:00;;;;;;;;;;;22.30;73.40;;;;;;6204956;23;19974;-96
2022/07/07 05:21:26;;;;;;;;;;;22.30;73.50;;;;;;6175163;23;19972;-96
2022/07/07 05:23:52;;;;;;;;;;;22.40;73.20;;;;;;6172524;23;20241;-96
2022/07/07 05:26:17;;;;;;;;;;;22.40;73.10;;;;;;6199216;23;19948;-96
2022/07/07 05:28:43;;;;;;;;;;;22.40;72.80;;;;;;6173400;23;19942;-96
2022/07/07 05:31:10;;;;;;;;;;;22.40;72.30;;;;;;6176915;23;19944;-96
2022/07/07 05:33:36;;;;;;;;;;;22.40;72.20;;;;;;6207419;23;19940;-96
2022/07/07 05:36:05;;;;;;;;;;;22.50;72.00;;;;;;6183100;23;19938;-96
2022/07/07 05:38:33;;;;;;;;;;;22.60;72.20;;;;;;6182204;23;19955;-96
2022/07/07 05:41:01;;;;;;;;;;;22.60;71.50;;;;;;6183102;23;19961;-96
2022/07/07 05:43:34;;;;;;;;;;;22.60;71.70;;;;;;6209117;23;20302;-96
2022/07/07 05:46:04;;;;;;;;;;;22.70;71.80;;;;;;6181236;23;19969;-96
2022/07/07 05:48:31;;;;;;;;;;;22.70;71.50;;;;;;6206706;23;19944;-96
2022/07/07 05:51:01;;;;;;;;;;;22.80;71.40;;;;;;6182742;23;19935;-96
2022/07/07 05:53:27;;;;;;;;;;;22.80;70.10;;;;;;6183857;23;19941;-97
2022/07/07 05:55:53;;;;;;;;;;;22.90;69.90;;;;;;6209601;23;19979;-96
2022/07/07 05:58:19;;;;;;;;;;;23.00;69.60;;;;;;6183133;23;19960;-96
2022/07/07 06:00:45;;;;;;;;;;;23.10;69.10;;;;;;6180358;23;19942;-96
2022/07/07 06:03:11;;;;;;;;;;;23.10;68.50;;;;;;6180440;23;19949;-96
2022/07/07 06:05:37;;;;;;;;;;;23.20;68.80;;;;;;6205900;23;19959;-96
2022/07/07 06:08:03;;;;;;;;;;;23.30;68.10;;;;;;6207498;23;19937;-96
2022/07/07 06:10:29;;;;;;;;;;;23.30;67.10;;;;;;6182161;23;19941;-96
2022/07/07 06:13:01;;;;;;;;;;;23.30;66.90;;;;;;6183806;23;19935;-96
2022/07/07 06:15:32;;;;;;;;;;;23.40;67.00;;;;;;6210301;23;19941;-96
2022/07/07 06:18:02;;;;;;;;;;;23.40;66.50;;;;;;6183362;23;19949;-96
2022/07/07 06:20:32;;;;;;;;;;;23.60;66.60;;;;;;6183801;23;19969;-96
2022/07/07 06:22:58;;;;;;;;;;;23.60;66.50;;;;;;6210066;23;19937;-96
2022/07/07 06:25:26;;;;;;;;;;;23.70;65.60;;;;;;6208929;23;19954;-96
2022/07/07 06:27:52;;;;;;;;;;;23.80;65.90;;;;;;6182838;23;19950;-96
2022/07/07 06:30:18;;;;;;;;;;;23.80;65.50;;;;;;6178740;23;19944;-96
2022/07/07 06:32:47;;;;;;;;;;;24.00;64.50;;;;;;6203995;23;19952;-96
2022/07/07 06:35:14;;;;;;;;;;;24.00;64.30;;;;;;6180537;23;19941;-96
2022/07/07 06:37:41;;;;;;;;;;;24.10;63.60;;;;;;6174753;23;19948;-96
2022/07/07 06:40:10;;;;;;;;;;;24.10;63.50;;;;;;6181082;23;19995;-96
2022/07/07 06:42:36;;;;;;;;;;;24.00;64.00;;;;;;6182253;23;19967;-96
2022/07/07 06:45:14;;;;;;;;;;;24.00;63.90;;;;;;6209095;22;19986;-96
2022/07/07 06:48:01;;;;;;;;;;;24.00;63.40;;;;;;6186921;23;19938;-96
2022/07/07 06:50:38;;;;;;;;;;;24.00;63.30;;;;;;6209468;23;19923;-96
2022/07/07 07:24:08;;;;;;;;;;;24.70;61.10;;;;;;6197991;23;19974;-96
2022/07/07 07:26:34;;;;;;;;;;;24.70;61.10;;;;;;6186356;23;19946;-96
2022/07/07 07:29:00;;;;;;;;;;;24.70;60.40;;;;;;6209256;23;19949;-96
2022/07/07 07:31:29;;;;;;;;;;;24.70;60.30;;;;;;6211077;23;19960;-96
2022/07/07 07:33:56;;;;;;;;;;;24.70;60.60;;;;;;6210916;23;19938;-96
2022/07/07 07:36:25;;;;;;;;;;;24.70;60.80;;;;;;6181174;23;19948;-96
2022/07/07 07:38:51;;;;;;;;;;;24.80;61.40;;;;;;6181678;23;19964;-96
2022/07/07 07:41:19;;;;;;;;;;;24.90;60.50;;;;;;6181719;23;19955;-96
2022/07/07 07:43:47;;;;;;;;;;;25.00;60.80;;;;;;6209326;23;19944;-97
2022/07/07 07:46:14;;;;;;;;;;;25.10;59.80;;;;;;6211048;23;19939;-96
2022/07/07 07:48:45;;;;;;;;;;;25.20;59.10;;;;;;6206831;23;20021;-96
2022/07/07 07:51:13;;;;;;;;;;;25.30;58.80;;;;;;6177466;23;19942;-96
2022/07/07 07:53:39;;;;;;;;;;;25.30;58.30;;;;;;6204556;23;19932;-96
2022/07/07 07:56:05;;;;;;;;;;;25.40;58.70;;;;;;6176549;23;19935;-96
2022/07/07 07:58:31;;;;;;;;;;;25.50;59.00;;;;;;6205914;23;19986;-96
2022/07/07 08:01:00;;;;;;;;;;;25.50;57.30;;;;;;6182499;23;19934;-96
2022/07/07 08:03:35;;;;;;;;;;;25.50;57.30;;;;;;6183720;23;19943;-96
2022/07/07 08:06:05;;;;;;;;;;;25.60;56.70;;;;;;6182598;23;19943;-96
2022/07/07 08:08:30;;;;;;;;;;;25.60;57.10;;;;;;6181654;23;19944;-96
2022/07/07 08:11:02;;;;;;;;;;;25.70;57.20;;;;;;6177747;23;19965;-97
2022/07/07 08:13:30;;;;;;;;;;;25.80;57.50;;;;;;6202961;23;20243;-96
2022/07/07 08:15:59;;;;;;;;;;;25.80;56.30;;;;;;6174740;23;19943;-96
2022/07/07 08:18:26;;;;;;;;;;;25.90;56.00;;;;;;6208431;23;19965;-97
2022/07/07 08:20:52;;;;;;;;;;;25.90;55.80;;;;;;6179716;23;19950;-96
2022/07/07 08:23:18;;;;;;;;;;;26.00;55.40;;;;;;6202398;23;20443;-96
2022/07/07 08:25:44;;;;;;;;;;;26.00;55.10;;;;;;6170973;23;20018;-96
2022/07/07 08:28:09;;;;;;;;;;;26.20;56.30;;;;;;6191051;23;19976;-96
2022/07/07 08:30:35;;;;;;;;;;;26.30;55.60;;;;;;6193670;23;19945;-96
2022/07/07 08:33:01;;;;;;;;;;;26.30;54.40;;;;;;6164437;23;19949;-96
2022/07/07 08:35:26;;;;;;;;;;;26.40;54.70;;;;;;6190371;23;19936;-96
2022/07/07 08:37:52;;;;;;;;;;;26.50;54.70;;;;;;6191042;23;19986;-96
2022/07/07 08:40:17;;;;;;;;;;;26.60;54.90;;;;;;6191361;23;19936;-96
2022/07/07 08:42:43;;;;;;;;;;;26.70;56.20;;;;;;6192151;23;19941;-96
2022/07/07 08:45:09;;;;;;;;;;;26.70;54.70;;;;;;6193681;23;19932;-96
2022/07/07 08:47:35;;;;;;;;;;;26.80;54.90;;;;;;6192957;23;19934;-96
2022/07/07 08:50:00;;;;;;;;;;;26.90;55.50;;;;;;6168159;23;19946;-96
2022/07/07 08:52:26;;;;;;;;;;;27.10;54.10;;;;;;6191263;23;19933;-96
2022/07/07 08:54:53;;;;;;;;;;;27.20;52.00;;;;;;6193761;23;20436;-96
2022/07/07 08:57:19;;;;;;;;;;;27.40;54.80;;;;;;6173596;23;19954;-96
2022/07/07 08:59:45;;;;;;;;;;;27.60;53.40;;;;;;6172097;23;19940;-96
2022/07/07 09:02:10;;;;;;;;;;;27.80;52.80;;;;;;6166029;23;19942;-96
2022/07/07 09:04:36;;;;;;;;;;;28.00;52.60;;;;;;6163415;23;20044;-96
2022/07/07 09:07:03;;;;;;;;;;;28.10;52.30;;;;;;6163742;23;19942;-96
2022/07/07 09:09:39;;;;;;;;;;;28.20;51.20;;;;;;6174244;23;19936;-96
2022/07/07 09:12:06;;;;;;;;;;;28.20;49.80;;;;;;6182051;23;19919;-96
2022/07/07 09:14:47;;;;;;;;;;;28.40;50.50;;;;;;6182780;23;20001;-96
2022/07/07 09:17:27;;;;;;;;;;;28.40;50.40;;;;;;6185167;23;19949;-97
2022/07/07 09:20:10;;;;;;;;;;;28.50;51.00;;;;;;6183081;23;19944;-96
2022/07/07 09:22:45;;;;;;;;;;;28.50;50.40;;;;;;6180866;23;19942;-96
2022/07/07 09:25:11;;;;;;;;;;;28.50;50.40;;;;;;6176274;23;20419;-96
2022/07/07 09:27:57;;;;;;;;;;;28.60;48.00;;;;;;6177536;23;19936;-96
2022/07/07 09:30:35;;;;;;;;;;;28.60;48.90;;;;;;6173639;23;19941;-96
2022/07/07 09:33:02;;;;;;;;;;;28.70;47.90;;;;;;6174806;23;19938;-96
2022/07/07 09:38:25;;;;;;;;;;;28.80;48.30;;;;;;6180287;23;19968;-96
2022/07/07 09:40:59;;;;;;;;;;;29.00;49.00;;;;;;6180476;23;19950;-96
2022/07/07 09:43:28;;;;;;;;;;;29.10;48.70;;;;;;6181275;23;19962;-96
2022/07/07 09:46:13;;;;;;;;;;;29.30;47.40;;;;;;6150113;23;19960;-96
2022/07/07 09:49:02;;;;;;;;;;;29.50;44.40;;;;;;6177980;23;19940;-97
2022/07/07 09:51:42;;;;;;;;;;;29.70;43.70;;;;;;6183320;23;19930;-97
2022/07/07 09:54:28;;;;;;;;;;;29.90;43.90;;;;;;6178518;23;19927;-96
2022/07/07 09:56:55;;;;;;;;;;;30.00;44.50;;;;;;6181461;23;19929;-96
2022/07/07 09:59:42;;;;;;;;;;;30.00;44.30;;;;;;6182185;23;19960;-96
2022/07/07 10:02:19;;;;;;;;;;;30.00;44.10;;;;;;6176852;23;19945;-96
2022/07/07 10:04:50;;;;;;;;;;;30.00;44.30;;;;;;6180106;23;19945;-96
2022/07/07 10:07:17;;;;;;;;;;;30.00;45.20;;;;;;6175395;23;19925;-96
2022/07/07 10:09:47;;;;;;;;;;;30.20;44.30;;;;;;6181468;23;19963;-96
2022/07/07 10:12:14;;;;;;;;;;;30.30;47.00;;;;;;6178263;23;19947;-96
2022/07/07 10:14:44;;;;;;;;;;;30.20;45.10;;;;;;6178157;23;19994;-96
2022/07/07 10:17:10;;;;;;;;;;;30.00;43.80;;;;;;6179264;23;19974;-96
2022/07/07 10:19:40;;;;;;;;;;;30.00;45.30;;;;;;6179330;23;19949;-96
2022/07/07 10:22:07;;;;;;;;;;;29.90;44.80;;;;;;6178218;23;19967;-96
2022/07/07 10:24:33;;;;;;;;;;;29.90;44.20;;;;;;6192922;23;19980;-96
2022/07/07 10:27:04;;;;;;;;;;;29.70;44.90;;;;;;6182967;23;19957;-96
2022/07/07 10:29:51;;;;;;;;;;;29.90;44.50;;;;;;6204009;23;19937;-96
2022/07/07 10:32:23;;;;;;;;;;;30.20;45.30;;;;;;6202579;23;19941;-96
2022/07/07 10:34:53;;;;;;;;;;;30.20;43.90;;;;;;6175515;23;19966;-96
2022/07/07 10:37:20;;;;;;;;;;;30.20;44.70;;;;;;6203436;23;19967;-96
2022/07/07 10:39:50;;;;;;;;;;;30.20;42.70;;;;;;6203834;23;19964;-96
2022/07/07 10:42:16;;;;;;;;;;;30.20;42.40;;;;;;6176742;23;19979;-96
2022/07/07 10:44:44;;;;;;;;;;;30.20;44.80;;;;;;6181263;23;19950;-96
2022/07/07 10:47:16;;;;;;;;;;;30.00;45.40;;;;;;6175421;23;19967;-96
2022/07/07 10:49:43;;;;;;;;;;;30.00;45.20;;;;;;6178169;23;19944;-97
2022/07/07 10:52:13;;;;;;;;;;;30.10;43.40;;;;;;6183237;23;19964;-96
2022/07/07 10:54:40;;;;;;;;;;;30.00;44.40;;;;;;6208563;23;19943;-96
2022/07/07 10:57:13;;;;;;;;;;;29.90;42.30;;;;;;6183780;23;19939;-96
2022/07/07 11:00:09;;;;;;;;;;;30.00;42.30;;;;;;6183590;23;19947;-96
2022/07/07 11:02:47;;;;;;;;;;;30.10;43.50;;;;;;6209753;23;19937;-96
2022/07/07 11:05:13;;;;;;;;;;;30.20;44.80;;;;;;6207913;23;20001;-96
2022/07/07 11:07:42;;;;;;;;;;;29.80;44.00;;;;;;6181657;23;20012;-96
2022/07/07 11:10:13;;;;;;;;;;;29.90;45.30;;;;;;6183995;23;19919;-96
2022/07/07 11:12:44;;;;;;;;;;;30.10;42.90;;;;;;6182951;23;19935;-98
2022/07/07 11:15:30;;;;;;;;;;;30.40;45.70;;;;;;6172521;23;19976;-96
2022/07/07 11:18:05;;;;;;;;;;;30.40;44.10;;;;;;6184056;23;19971;-96
2022/07/07 11:20:56;;;;;;;;;;;30.60;44.90;;;;;;6208364;23;19934;-96
2022/07/07 11:23:25;;;;;;;;;;;30.80;48.30;;;;;;6185401;23;20023;-96
2022/07/07 11:28:27;;;;;;;;;;;31.10;43.10;;;;;;6221383;23;19946;-96
2022/07/07 11:31:25;;;;;;;;;;;31.20;43.60;;;;;;6238513;23;19939;-96
2022/07/07 11:34:05;;;;;;;;;;;31.20;44.30;;;;;;6185238;23;19933;-96
2022/07/07 11:39:13;;;;;;;;;;;31.40;42.00;;;;;;6202845;23;19946;-96
2022/07/07 11:41:40;;;;;;;;;;;31.10;42.60;;;;;;6201705;23;19939;-96
2022/07/07 11:44:06;;;;;;;;;;;31.00;42.80;;;;;;6176169;23;19952;-96
2022/07/07 11:46:31;;;;;;;;;;;30.90;43.90;;;;;;6204355;23;20274;-97
2022/07/07 11:48:57;;;;;;;;;;;31.10;43.30;;;;;;6175143;23;19943;-96
2022/07/07 11:51:27;;;;;;;;;;;31.50;43.60;;;;;;6201786;23;19935;-96
2022/07/07 11:53:58;;;;;;;;;;;31.80;40.80;;;;;;6180465;23;19951;-96
2022/07/07 11:56:28;;;;;;;;;;;32.00;40.80;;;;;;6179704;23;19975;-96
2022/07/07 11:58:58;;;;;;;;;;;32.10;41.80;;;;;;6178131;23;19943;-96
2022/07/07 12:01:27;;;;;;;;;;;32.20;41.10;;;;;;6180957;23;19941;-96
2022/07/07 12:04:06;;;;;;;;;;;32.10;39.30;;;;;;6181809;23;19960;-97
2022/07/07 12:06:32;;;;;;;;;;;32.10;41.10;;;;;;6211957;23;19945;-97
2022/07/07 12:09:02;;;;;;;;;;;32.00;38.50;;;;;;6185576;23;20036;-96
2022/07/07 12:11:31;;;;;;;;;;;31.80;39.60;;;;;;6208719;23;19939;-97
2022/07/07 12:13:58;;;;;;;;;;;32.10;38.50;;;;;;6187071;23;19946;-96
2022/07/07 12:16:45;;;;;;;;;;;32.50;38.20;;;;;;6212870;23;19947;-96
2022/07/07 12:24:38;;;;;;;;;;;33.70;37.60;;;;;;6204933;23;19950;-97
2022/07/07 12:27:16;;;;;;;;;;;34.50;34.40;;;;;;6183846;23;19961;-96
2022/07/07 12:42:42;;;;;;;;;;;35.60;31.70;;;;;;6201873;22;19979;-96
2022/07/07 12:45:16;;;;;;;;;;;35.90;32.10;;;;;;6181045;23;19949;-96
2022/07/07 12:47:57;;;;;;;;;;;36.20;33.70;;;;;;6181721;23;19979;-96
2022/07/07 13:05:56;;;;;;;;;;;32.20;38.90;;;;;;6189350;23;19949;-96
2022/07/07 13:08:23;;;;;;;;;;;31.90;39.30;;;;;;6154844;23;19967;-96
2022/07/07 13:10:49;;;;;;;;;;;31.70;39.60;;;;;;6181171;23;19935;-96
2022/07/07 13:13:22;;;;;;;;;;;31.60;40.80;;;;;;6155736;23;19944;-96
2022/07/07 13:15:49;;;;;;;;;;;31.50;40.50;;;;;;6181408;23;19942;-96
2022/07/07 13:18:20;;;;;;;;;;;31.50;40.90;;;;;;6149279;23;19996;-96
2022/07/07 13:20:47;;;;;;;;;;;31.60;43.00;;;;;;6149296;23;19969;-96
2022/07/07 13:23:14;;;;;;;;;;;31.70;43.40;;;;;;6147214;23;19992;-96
2022/07/07 13:25:43;;;;;;;;;;;31.60;38.90;;;;;;6147570;23;19936;-96
2022/07/07 13:28:12;;;;;;;;;;;31.30;39.20;;;;;;6176580;23;20017;-96
2022/07/07 13:30:43;;;;;;;;;;;31.00;39.40;;;;;;6154331;23;19934;-96
2022/07/07 13:33:09;;;;;;;;;;;30.80;40.30;;;;;;6179467;23;20404;-96
2022/07/07 13:35:40;;;;;;;;;;;30.80;40.10;;;;;;6156923;23;19954;-96
2022/07/07 13:38:06;;;;;;;;;;;30.70;41.20;;;;;;6156268;23;19978;-96
2022/07/07 13:40:37;;;;;;;;;;;30.70;41.90;;;;;;6182100;23;19939;-97
2022/07/07 13:43:11;;;;;;;;;;;30.70;43.00;;;;;;6152452;23;20002;-96
2022/07/07 13:45:38;;;;;;;;;;;30.70;42.70;;;;;;6160651;23;20060;-96
2022/07/07 13:48:09;;;;;;;;;;;30.80;43.10;;;;;;6211780;23;20005;-97
2022/07/07 13:50:39;;;;;;;;;;;30.90;42.30;;;;;;6207269;23;19949;-96
2022/07/07 13:53:06;;;;;;;;;;;31.00;42.10;;;;;;6211075;23;19923;-97
2022/07/07 13:55:39;;;;;;;;;;;31.20;42.10;;;;;;6185666;23;19936;-97
2022/07/07 13:58:30;;;;;;;;;;;31.50;41.90;;;;;;6211115;23;20004;-96
2022/07/07 14:00:57;;;;;;;;;;;31.80;41.20;;;;;;6211738;23;19947;-96
2022/07/07 14:03:22;;;;;;;;;;;32.00;41.00;;;;;;6182436;23;19960;-96
2022/07/07 14:05:57;;;;;;;;;;;32.10;42.60;;;;;;6203917;23;19937;-96
2022/07/07 14:08:23;;;;;;;;;;;32.20;40.40;;;;;;6184075;23;19920;-97
2022/07/07 14:13:24;;;;;;;;;;;32.20;40.60;;;;;;6209534;23;19981;-96
2022/07/07 14:15:50;;;;;;;;;;;31.90;41.70;;;;;;6170303;23;19951;-96
2022/07/07 14:18:16;;;;;;;;;;;31.50;44.70;;;;;;6199070;23;19964;-96
2022/07/07 14:20:42;;;;;;;;;;;30.80;47.20;;;;;;6173498;23;19935;-96
2022/07/07 14:23:08;;;;;;;;;;;30.30;48.80;;;;;;6202029;23;19935;-96
2022/07/07 14:25:33;;;;;;;;;;;29.20;52.80;;;;;;6175884;23;19943;-96
2022/07/07 14:27:59;;;;;;;;;;;28.60;54.80;;;;;;6200181;23;19936;-96
2022/07/07 14:30:24;;;;;;;;;;;28.30;56.30;;;;;;6173434;23;19946;-96
2022/07/07 14:32:53;;;;;;;;;;;28.20;57.00;;;;;;6201386;23;19938;-96
2022/07/07 14:35:19;;;;;;;;;;;29.20;56.30;;;;;;6203271;23;19961;-96
2022/07/07 14:37:45;;;;;;;;;;;30.70;51.30;;;;;;6208004;23;20009;-96
2022/07/07 14:40:12;;;;;;;;;;;32.20;48.40;;;;;;6211106;23;19937;-96
2022/07/07 14:42:43;;;;;;;;;;;33.60;44.50;;;;;;6211725;23;19954;-96
2022/07/07 14:45:11;;;;;;;;;;;34.80;41.40;;;;;;6187518;23;19923;-97
2022/07/07 14:47:43;;;;;;;;;;;35.80;39.80;;;;;;6186173;23;19968;-96
2022/07/07 14:50:17;;;;;;;;;;;36.80;38.20;;;;;;6187613;23;19947;-96
2022/07/07 14:52:47;;;;;;;;;;;37.60;37.30;;;;;;6213875;23;19950;-96
2022/07/07 14:55:16;;;;;;;;;;;37.30;37.90;;;;;;6183433;23;19991;-96
2022/07/07 14:58:00;;;;;;;;;;;36.00;38.80;;;;;;6211760;23;20006;-96
2022/07/07 15:03:07;;;;;;;;;;;33.90;43.10;;;;;;6204272;23;20006;-96
2022/07/07 15:11:04;;;;;;;;;;;32.50;46.40;;;;;;6202897;23;19968;-96
2022/07/07 15:13:39;;;;;;;;;;;31.50;48.70;;;;;;6210625;23;19948;-97
2022/07/07 15:16:13;;;;;;;;;;;30.70;50.90;;;;;;6170282;23;19980;-96
2022/07/07 15:18:39;;;;;;;;;;;30.30;51.10;;;;;;6184863;23;19952;-96
2022/07/07 15:21:07;;;;;;;;;;;29.80;52.70;;;;;;6210739;23;19932;-96
2022/07/07 15:23:39;;;;;;;;;;;29.70;52.80;;;;;;6206912;22;19979;-96
2022/07/07 15:26:06;;;;;;;;;;;29.40;52.30;;;;;;6184962;23;19938;-96
2022/07/07 15:28:34;;;;;;;;;;;29.20;52.90;;;;;;6186412;23;19953;-96
2022/07/07 15:31:10;;;;;;;;;;;29.10;53.70;;;;;;6210701;23;19959;-96
2022/07/07 15:33:37;;;;;;;;;;;28.90;54.00;;;;;;6215136;23;19930;-96
2022/07/07 15:38:49;;;;;;;;;;;28.80;54.50;;;;;;6192061;22;19973;-96
2022/07/07 15:41:19;;;;;;;;;;;28.90;54.20;;;;;;6134370;23;19968;-97
2022/07/07 15:43:47;;;;;;;;;;;29.30;54.00;;;;;;6160104;23;19972;-96
2022/07/07 16:04:38;;;;;;;;;;;30.70;48.30;;;;;;6215068;22;20021;-96
2022/07/07 16:07:18;;;;;;;;;;;30.40;48.80;;;;;;6166050;23;19970;-96
2022/07/07 16:09:49;;;;;;;;;;;30.20;49.20;;;;;;6188140;23;19965;-96